createdAt,value
2019-03-31T00:00:45.555Z,1013.63
2019-03-31T00:01:45.470Z,1013.64
2019-03-31T00:02:45.466Z,1013.67
2019-03-31T00:03:45.450Z,1013.64
2019-03-31T00:04:45.445Z,1013.63
2019-03-31T00:05:45.496Z,1013.63
2019-03-31T00:06:45.418Z,1013.60
2019-03-31T00:07:45.411Z,1013.58
2019-03-31T00:08:45.397Z,1013.54
2019-03-31T00:09:45.393Z,1013.59
2019-03-31T00:10:45.376Z,1013.61
2019-03-31T00:11:45.416Z,1013.61
2019-03-31T00:12:45.347Z,1013.61
2019-03-31T00:13:45.346Z,1013.62
2019-03-31T00:14:45.333Z,1013.60
2019-03-31T00:15:45.315Z,1013.62
2019-03-31T00:16:45.332Z,1013.59
2019-03-31T00:17:45.335Z,1013.60
2019-03-31T00:18:45.290Z,1013.62
2019-03-31T00:19:45.284Z,1013.58
2019-03-31T00:20:45.276Z,1013.61
2019-03-31T00:21:45.276Z,1013.58
2019-03-31T00:22:45.238Z,1013.61
2019-03-31T00:23:45.231Z,1013.60
2019-03-31T00:24:45.228Z,1013.63
2019-03-31T00:25:45.211Z,1013.65
2019-03-31T00:26:45.193Z,1013.65
2019-03-31T00:27:45.201Z,1013.67
2019-03-31T00:28:45.181Z,1013.68
2019-03-31T00:29:45.351Z,1013.69
2019-03-31T00:30:45.152Z,1013.66
2019-03-31T00:31:45.143Z,1013.67
2019-03-31T00:32:45.136Z,1013.68
2019-03-31T00:33:45.121Z,1013.64
2019-03-31T00:34:45.117Z,1013.64
2019-03-31T00:35:45.098Z,1013.67
2019-03-31T00:36:45.085Z,1013.67
2019-03-31T00:37:45.076Z,1013.64
2019-03-31T00:38:45.065Z,1013.67
2019-03-31T00:39:45.069Z,1013.65
2019-03-31T00:40:45.045Z,1013.62
2019-03-31T00:41:45.030Z,1013.66
2019-03-31T00:42:45.031Z,1013.64
2019-03-31T00:43:45.040Z,1013.65
2019-03-31T00:44:44.994Z,1013.64
2019-03-31T00:45:44.993Z,1013.70
2019-03-31T00:46:44.977Z,1013.66
2019-03-31T00:47:44.973Z,1013.65
2019-03-31T00:48:44.950Z,1013.67
2019-03-31T00:49:44.995Z,1013.71
2019-03-31T00:50:44.932Z,1013.68
2019-03-31T00:51:44.917Z,1013.65
2019-03-31T00:52:44.907Z,1013.63
2019-03-31T00:53:44.900Z,1013.64
2019-03-31T00:54:44.897Z,1013.62
2019-03-31T00:55:44.876Z,1013.67
2019-03-31T00:56:44.864Z,1013.65
2019-03-31T00:57:44.855Z,1013.71
2019-03-31T00:58:44.845Z,1013.70
2019-03-31T00:59:44.900Z,1013.74
2019-03-31T01:00:44.837Z,1013.71
2019-03-31T01:01:44.809Z,1013.71
2019-03-31T01:02:44.799Z,1013.75
2019-03-31T01:03:44.798Z,1013.72
2019-03-31T01:04:44.826Z,1013.71
2019-03-31T01:05:44.765Z,1013.72
2019-03-31T01:06:44.770Z,1013.71
2019-03-31T01:07:44.746Z,1013.71
2019-03-31T01:08:44.732Z,1013.72
2019-03-31T01:09:44.770Z,1013.71
2019-03-31T01:10:44.706Z,1013.73
2019-03-31T01:11:44.698Z,1013.81
2019-03-31T01:12:44.686Z,1013.74
2019-03-31T01:13:44.766Z,1013.79
2019-03-31T01:14:44.667Z,1013.81
2019-03-31T01:15:44.650Z,1013.85
2019-03-31T01:16:44.643Z,1013.84
2019-03-31T01:17:44.635Z,1013.89
2019-03-31T01:18:44.647Z,1013.85
2019-03-31T01:19:44.661Z,1013.88
2019-03-31T01:20:44.618Z,1013.89
2019-03-31T01:21:45.295Z,1013.88
2019-03-31T01:22:44.576Z,1013.88
2019-03-31T01:23:44.563Z,1013.87
2019-03-31T01:24:44.559Z,1013.86
2019-03-31T01:25:44.547Z,1013.88
2019-03-31T01:26:44.537Z,1013.84
2019-03-31T01:27:44.516Z,1013.90
2019-03-31T01:28:44.536Z,1013.87
2019-03-31T01:29:44.504Z,1013.91
2019-03-31T01:30:44.536Z,1013.94
2019-03-31T01:31:50.656Z,1013.93
2019-03-31T01:32:45.516Z,1013.96
2019-03-31T01:33:44.448Z,1013.96
2019-03-31T01:34:44.437Z,1013.99
2019-03-31T01:35:44.431Z,1013.98
2019-03-31T01:36:44.422Z,1013.99
2019-03-31T01:37:44.426Z,1013.97
2019-03-31T01:38:44.399Z,1013.96
2019-03-31T01:39:44.389Z,1014.01
2019-03-31T01:40:44.376Z,1013.99
2019-03-31T01:41:44.365Z,1013.98
2019-03-31T01:42:44.447Z,1013.98
2019-03-31T01:43:44.343Z,1013.94
2019-03-31T01:44:44.330Z,1014.04
2019-03-31T01:45:44.321Z,1014.01
2019-03-31T01:46:44.303Z,1013.96
2019-03-31T01:47:44.294Z,1013.98
2019-03-31T01:48:44.300Z,1014.00
2019-03-31T01:49:44.280Z,1013.98
2019-03-31T01:50:44.276Z,1014.00
2019-03-31T01:51:44.258Z,1013.97
2019-03-31T01:52:44.291Z,1014.05
2019-03-31T01:53:44.231Z,1014.07
2019-03-31T01:54:44.221Z,1014.07
2019-03-31T01:55:44.205Z,1014.12
2019-03-31T01:56:44.951Z,1014.09
2019-03-31T01:57:44.207Z,1014.12
2019-03-31T01:58:44.212Z,1014.11
2019-03-31T01:59:44.165Z,1014.12
2019-03-31T02:00:44.164Z,1014.15
2019-03-31T02:01:44.140Z,1014.15
2019-03-31T02:02:44.196Z,1014.08
2019-03-31T02:03:44.120Z,1014.14
2019-03-31T02:04:44.160Z,1014.13
2019-03-31T02:05:44.098Z,1014.08
2019-03-31T02:06:44.844Z,1014.15
2019-03-31T02:07:44.151Z,1014.18
2019-03-31T02:08:44.063Z,1014.15
2019-03-31T02:09:44.805Z,1014.14
2019-03-31T02:10:44.044Z,1014.13
2019-03-31T02:11:44.033Z,1014.16
2019-03-31T02:12:44.017Z,1014.14
2019-03-31T02:13:44.010Z,1014.18
2019-03-31T02:14:43.993Z,1014.17
2019-03-31T02:15:44.036Z,1014.16
2019-03-31T02:16:43.975Z,1014.14
2019-03-31T02:17:43.965Z,1014.17
2019-03-31T02:18:43.954Z,1014.18
2019-03-31T02:19:43.953Z,1014.15
2019-03-31T02:20:43.936Z,1014.17
2019-03-31T02:21:44.014Z,1014.09
2019-03-31T02:22:43.911Z,1014.13
2019-03-31T02:23:43.893Z,1014.11
2019-03-31T02:24:43.889Z,1014.07
2019-03-31T02:25:43.870Z,1014.07
2019-03-31T02:26:43.933Z,1014.03
2019-03-31T02:27:43.852Z,1014.08
2019-03-31T02:28:43.836Z,1014.12
2019-03-31T02:29:43.830Z,1014.12
2019-03-31T02:30:43.824Z,1014.11
2019-03-31T02:31:43.804Z,1014.16
2019-03-31T02:32:43.879Z,1014.08
2019-03-31T02:33:43.789Z,1014.15
2019-03-31T02:34:43.775Z,1014.10
2019-03-31T02:35:43.764Z,1014.13
2019-03-31T02:36:43.747Z,1014.13
2019-03-31T02:37:43.739Z,1014.11
2019-03-31T02:38:43.790Z,1014.14
2019-03-31T02:39:43.716Z,1014.13
2019-03-31T02:40:43.710Z,1014.11
2019-03-31T02:41:43.777Z,1014.14
2019-03-31T02:42:43.683Z,1014.14
2019-03-31T02:43:43.674Z,1014.12
2019-03-31T02:44:43.675Z,1014.13
2019-03-31T02:45:43.645Z,1014.15
2019-03-31T02:46:43.710Z,1014.17
2019-03-31T02:47:43.639Z,1014.19
2019-03-31T02:48:43.621Z,1014.17
2019-03-31T02:49:43.634Z,1014.17
2019-03-31T02:50:43.596Z,1014.17
2019-03-31T02:51:43.592Z,1014.21
2019-03-31T02:52:43.605Z,1014.14
2019-03-31T02:53:43.559Z,1014.14
2019-03-31T02:54:43.613Z,1014.16
2019-03-31T02:55:43.553Z,1014.23
2019-03-31T02:56:43.538Z,1014.21
2019-03-31T02:57:43.518Z,1014.20
2019-03-31T02:58:43.557Z,1014.22
2019-03-31T02:59:43.499Z,1014.25
2019-03-31T03:00:43.487Z,1014.24
2019-03-31T03:01:43.465Z,1014.26
2019-03-31T03:02:43.462Z,1014.28
2019-03-31T03:03:43.444Z,1014.28
2019-03-31T03:04:43.513Z,1014.27
2019-03-31T03:05:43.427Z,1014.35
2019-03-31T03:06:43.411Z,1014.35
2019-03-31T03:07:43.399Z,1014.30
2019-03-31T03:08:43.399Z,1014.35
2019-03-31T03:09:43.381Z,1014.31
2019-03-31T03:10:43.423Z,1014.34
2019-03-31T03:11:43.359Z,1014.36
2019-03-31T03:12:43.343Z,1014.35
2019-03-31T03:13:43.371Z,1014.38
2019-03-31T03:14:43.468Z,1014.35
2019-03-31T03:15:43.366Z,1014.38
2019-03-31T03:16:43.306Z,1014.35
2019-03-31T03:17:43.295Z,1014.41
2019-03-31T03:18:43.277Z,1014.35
2019-03-31T03:19:43.270Z,1014.40
2019-03-31T03:20:43.255Z,1014.42
2019-03-31T03:21:43.313Z,1014.44
2019-03-31T03:22:43.269Z,1014.40
2019-03-31T03:23:43.232Z,1014.43
2019-03-31T03:24:43.212Z,1014.50
2019-03-31T03:25:55.646Z,1014.53
2019-03-31T03:26:44.201Z,1014.49
2019-03-31T03:27:43.180Z,1014.46
2019-03-31T03:28:43.171Z,1014.48
2019-03-31T03:29:43.155Z,1014.51
2019-03-31T03:30:43.260Z,1014.48
2019-03-31T03:31:43.191Z,1014.49
2019-03-31T03:33:12.261Z,1014.53
2019-03-31T03:33:44.126Z,1014.47
2019-03-31T03:34:43.102Z,1014.50
2019-03-31T03:35:43.110Z,1014.55
2019-03-31T03:36:43.777Z,1014.57
2019-03-31T03:37:43.074Z,1014.57
2019-03-31T03:38:43.060Z,1014.58
2019-03-31T03:39:43.049Z,1014.61
2019-03-31T03:40:43.071Z,1014.60
2019-03-31T03:41:43.026Z,1014.53
2019-03-31T03:42:43.047Z,1014.55
2019-03-31T03:43:55.146Z,1014.58
2019-03-31T03:44:43.995Z,1014.54
2019-03-31T03:45:42.979Z,1014.51
2019-03-31T03:46:42.972Z,1014.57
2019-03-31T03:47:43.033Z,1014.58
2019-03-31T03:48:42.949Z,1014.60
2019-03-31T03:49:42.941Z,1014.57
2019-03-31T03:50:42.931Z,1014.58
2019-03-31T03:51:42.919Z,1014.61
2019-03-31T03:52:42.905Z,1014.62
2019-03-31T03:53:42.945Z,1014.60
2019-03-31T03:54:42.877Z,1014.62
2019-03-31T03:55:42.869Z,1014.68
2019-03-31T03:56:42.857Z,1014.67
2019-03-31T03:57:42.855Z,1014.70
2019-03-31T03:58:42.840Z,1014.67
2019-03-31T03:59:42.850Z,1014.70
2019-03-31T04:00:42.823Z,1014.75
2019-03-31T04:01:42.932Z,1014.73
2019-03-31T04:02:42.864Z,1014.77
2019-03-31T04:03:42.838Z,1014.78
2019-03-31T04:04:42.778Z,1014.73
2019-03-31T04:05:42.760Z,1014.75
2019-03-31T04:06:42.757Z,1014.73
2019-03-31T04:07:42.742Z,1014.76
2019-03-31T04:08:42.724Z,1014.74
2019-03-31T04:09:42.771Z,1014.77
2019-03-31T04:10:42.709Z,1014.75
2019-03-31T04:11:42.696Z,1014.76
2019-03-31T04:12:42.683Z,1014.83
2019-03-31T04:13:42.686Z,1014.80
2019-03-31T04:14:42.662Z,1014.82
2019-03-31T04:15:42.657Z,1014.84
2019-03-31T04:16:42.668Z,1014.85
2019-03-31T04:17:42.626Z,1014.87
2019-03-31T04:18:42.726Z,1014.87
2019-03-31T04:19:42.663Z,1014.88
2019-03-31T04:20:42.601Z,1014.90
2019-03-31T04:21:42.589Z,1014.92
2019-03-31T04:22:42.629Z,1014.94
2019-03-31T04:23:42.620Z,1014.97
2019-03-31T04:24:42.608Z,1014.98
2019-03-31T04:25:42.549Z,1014.93
2019-03-31T04:26:42.528Z,1014.94
2019-03-31T04:27:42.520Z,1014.94
2019-03-31T04:28:42.517Z,1014.93
2019-03-31T04:29:42.519Z,1014.97
2019-03-31T04:30:42.485Z,1014.93
2019-03-31T04:31:42.488Z,1014.97
2019-03-31T04:32:42.468Z,1014.95
2019-03-31T04:33:51.411Z,1014.90
2019-03-31T04:34:43.451Z,1014.93
2019-03-31T04:35:42.490Z,1014.94
2019-03-31T04:36:42.449Z,1014.99
2019-03-31T04:37:42.406Z,1014.96
2019-03-31T04:38:42.397Z,1014.99
2019-03-31T04:39:42.404Z,1015.02
2019-03-31T04:40:42.447Z,1015.07
2019-03-31T04:41:42.368Z,1015.07
2019-03-31T04:42:42.355Z,1015.06
2019-03-31T04:43:42.363Z,1015.14
2019-03-31T04:44:42.421Z,1015.08
2019-03-31T04:45:42.327Z,1015.07
2019-03-31T04:46:42.313Z,1015.16
2019-03-31T04:47:42.302Z,1015.12
2019-03-31T04:48:42.297Z,1015.16
2019-03-31T04:49:42.280Z,1015.23
2019-03-31T04:50:42.279Z,1015.24
2019-03-31T04:51:42.261Z,1015.21
2019-03-31T04:52:42.246Z,1015.23
2019-03-31T04:53:42.304Z,1015.24
2019-03-31T04:54:42.222Z,1015.29
2019-03-31T04:55:42.209Z,1015.34
2019-03-31T04:56:42.273Z,1015.31
2019-03-31T04:57:42.189Z,1015.33
2019-03-31T04:58:42.180Z,1015.34
2019-03-31T04:59:42.173Z,1015.30
2019-03-31T05:00:42.211Z,1015.32
2019-03-31T05:01:42.143Z,1015.35
2019-03-31T05:02:42.182Z,1015.31
2019-03-31T05:03:42.125Z,1015.39
2019-03-31T05:04:42.112Z,1015.41
2019-03-31T05:05:42.103Z,1015.41
2019-03-31T05:06:42.090Z,1015.40
2019-03-31T05:07:42.116Z,1015.41
2019-03-31T05:08:42.068Z,1015.46
2019-03-31T05:09:42.061Z,1015.48
2019-03-31T05:10:42.043Z,1015.54
2019-03-31T05:11:42.032Z,1015.51
2019-03-31T05:12:42.025Z,1015.52
2019-03-31T05:13:42.066Z,1015.56
2019-03-31T05:14:42.003Z,1015.57
2019-03-31T05:15:41.990Z,1015.58
2019-03-31T05:16:41.982Z,1015.65
2019-03-31T05:17:41.970Z,1015.68
2019-03-31T05:18:42.031Z,1015.75
2019-03-31T05:19:41.950Z,1015.72
2019-03-31T05:20:41.940Z,1015.75
2019-03-31T05:21:41.927Z,1015.77
2019-03-31T05:22:41.914Z,1015.77
2019-03-31T05:23:41.904Z,1015.84
2019-03-31T05:24:41.899Z,1015.90
2019-03-31T05:25:41.877Z,1015.91
2019-03-31T05:26:41.872Z,1015.96
2019-03-31T05:27:41.917Z,1015.95
2019-03-31T05:28:44.198Z,1015.97
2019-03-31T05:29:41.833Z,1016.01
2019-03-31T05:30:41.878Z,1016.02
2019-03-31T05:31:41.834Z,1016.04
2019-03-31T05:32:41.807Z,1016.12
2019-03-31T05:33:41.865Z,1016.08
2019-03-31T05:34:41.793Z,1016.11
2019-03-31T05:35:41.768Z,1016.13
2019-03-31T05:36:41.758Z,1016.15
2019-03-31T05:37:50.936Z,1016.19
2019-03-31T05:38:42.735Z,1016.25
2019-03-31T05:39:41.799Z,1016.27
2019-03-31T05:40:41.719Z,1016.31
2019-03-31T05:41:41.703Z,1016.37
2019-03-31T05:42:41.735Z,1016.37
2019-03-31T05:43:41.685Z,1016.40
2019-03-31T05:44:41.673Z,1016.39
2019-03-31T05:45:41.713Z,1016.41
2019-03-31T05:46:41.646Z,1016.42
2019-03-31T05:47:41.641Z,1016.45
2019-03-31T05:48:41.630Z,1016.48
2019-03-31T05:49:41.619Z,1016.49
2019-03-31T05:50:41.631Z,1016.50
2019-03-31T05:51:41.590Z,1016.55
2019-03-31T05:52:41.588Z,1016.56
2019-03-31T05:53:41.593Z,1016.52
2019-03-31T05:54:41.566Z,1016.53
2019-03-31T05:55:41.552Z,1016.50
2019-03-31T05:56:41.535Z,1016.54
2019-03-31T05:57:41.528Z,1016.54
2019-03-31T05:58:41.522Z,1016.58
2019-03-31T05:59:41.582Z,1016.62
2019-03-31T06:00:41.496Z,1016.65
2019-03-31T06:01:41.483Z,1016.59
2019-03-31T06:02:41.474Z,1016.63
2019-03-31T06:03:41.467Z,1016.65
2019-03-31T06:04:41.446Z,1016.67
2019-03-31T06:05:41.510Z,1016.71
2019-03-31T06:06:41.431Z,1016.73
2019-03-31T06:07:41.433Z,1016.75
2019-03-31T06:08:41.410Z,1016.77
2019-03-31T06:09:41.466Z,1016.76
2019-03-31T06:10:41.383Z,1016.74
2019-03-31T06:11:41.371Z,1016.79
2019-03-31T06:12:41.364Z,1016.82
2019-03-31T06:13:41.351Z,1016.76
2019-03-31T06:14:41.391Z,1016.81
2019-03-31T06:15:41.325Z,1016.79
2019-03-31T06:16:41.313Z,1016.79
2019-03-31T06:17:41.303Z,1016.83
2019-03-31T06:18:41.296Z,1016.83
2019-03-31T06:19:41.343Z,1016.83
2019-03-31T06:20:41.323Z,1016.83
2019-03-31T06:21:41.262Z,1016.87
2019-03-31T06:22:41.252Z,1016.89
2019-03-31T06:23:41.233Z,1016.95
2019-03-31T06:24:41.242Z,1016.91
2019-03-31T06:25:41.292Z,1016.91
2019-03-31T06:26:41.205Z,1016.90
2019-03-31T06:27:41.195Z,1016.94
2019-03-31T06:28:41.191Z,1016.89
2019-03-31T06:29:41.177Z,1016.86
2019-03-31T06:30:41.164Z,1016.88
2019-03-31T06:31:41.180Z,1016.89
2019-03-31T06:32:41.139Z,1016.94
2019-03-31T06:33:41.130Z,1016.93
2019-03-31T06:34:47.493Z,1016.97
2019-03-31T06:35:42.177Z,1016.97
2019-03-31T06:36:41.100Z,1017.03
2019-03-31T06:37:41.078Z,1017.04
2019-03-31T06:38:41.070Z,1017.04
2019-03-31T06:39:41.064Z,1017.12
2019-03-31T06:40:41.046Z,1017.09
2019-03-31T06:41:41.046Z,1017.11
2019-03-31T06:42:41.029Z,1017.09
2019-03-31T06:43:41.017Z,1017.13
2019-03-31T06:44:41.003Z,1017.15
2019-03-31T06:45:41.002Z,1017.16
2019-03-31T06:46:41.043Z,1017.15
2019-03-31T06:47:40.974Z,1017.11
2019-03-31T06:48:40.971Z,1017.12
2019-03-31T06:49:40.950Z,1017.13
2019-03-31T06:50:40.937Z,1017.13
2019-03-31T06:51:40.924Z,1017.14
2019-03-31T06:52:40.961Z,1017.13
2019-03-31T06:53:40.908Z,1017.11
2019-03-31T06:54:40.965Z,1017.14
2019-03-31T06:55:40.882Z,1017.13
2019-03-31T06:56:40.876Z,1017.12
2019-03-31T06:57:40.858Z,1017.14
2019-03-31T06:58:40.851Z,1017.17
2019-03-31T06:59:40.850Z,1017.16
2019-03-31T07:00:40.825Z,1017.15
2019-03-31T07:01:40.815Z,1017.15
2019-03-31T07:02:40.803Z,1017.17
2019-03-31T07:03:40.860Z,1017.16
2019-03-31T07:04:40.785Z,1017.17
2019-03-31T07:05:40.777Z,1017.19
2019-03-31T07:06:40.759Z,1017.19
2019-03-31T07:07:40.750Z,1017.13
2019-03-31T07:08:40.736Z,1017.14
2019-03-31T07:09:40.986Z,1017.14
2019-03-31T07:10:40.724Z,1017.17
2019-03-31T07:11:40.705Z,1017.17
2019-03-31T07:12:40.693Z,1017.19
2019-03-31T07:13:40.687Z,1017.20
2019-03-31T07:14:40.680Z,1017.20
2019-03-31T07:15:40.718Z,1017.27
2019-03-31T07:16:40.654Z,1017.20
2019-03-31T07:17:40.637Z,1017.22
2019-03-31T07:18:40.632Z,1017.26
2019-03-31T07:19:40.616Z,1017.29
2019-03-31T07:20:40.662Z,1017.34
2019-03-31T07:21:40.594Z,1017.39
2019-03-31T07:22:40.601Z,1017.41
2019-03-31T07:23:40.577Z,1017.44
2019-03-31T07:24:40.568Z,1017.43
2019-03-31T07:25:40.586Z,1017.40
2019-03-31T07:26:40.546Z,1017.47
2019-03-31T07:27:40.530Z,1017.49
2019-03-31T07:28:40.521Z,1017.51
2019-03-31T07:29:40.511Z,1017.49
2019-03-31T07:30:40.497Z,1017.47
2019-03-31T07:31:40.539Z,1017.48
2019-03-31T07:32:40.475Z,1017.50
2019-03-31T07:33:40.461Z,1017.53
2019-03-31T07:34:40.456Z,1017.53
2019-03-31T07:35:40.439Z,1017.50
2019-03-31T07:36:40.472Z,1017.49
2019-03-31T07:37:47.289Z,1017.54
2019-03-31T07:38:41.407Z,1017.53
2019-03-31T07:39:40.835Z,1017.61
2019-03-31T07:40:40.538Z,1017.56
2019-03-31T07:41:40.463Z,1017.63
2019-03-31T07:42:40.363Z,1017.64
2019-03-31T07:43:40.365Z,1017.67
2019-03-31T07:44:40.345Z,1017.67
2019-03-31T07:45:40.333Z,1017.66
2019-03-31T07:46:40.341Z,1017.68
2019-03-31T07:47:40.307Z,1017.71
2019-03-31T07:48:40.295Z,1017.69
2019-03-31T07:49:40.294Z,1017.76
2019-03-31T07:50:40.277Z,1017.78
2019-03-31T07:51:40.266Z,1017.73
2019-03-31T07:52:40.311Z,1017.80
2019-03-31T07:53:40.255Z,1017.81
2019-03-31T07:54:40.229Z,1017.81
2019-03-31T07:55:40.221Z,1017.77
2019-03-31T07:56:40.209Z,1017.79
2019-03-31T07:57:40.216Z,1017.79
2019-03-31T07:58:40.266Z,1017.81
2019-03-31T07:59:40.173Z,1017.86
2019-03-31T08:00:40.163Z,1017.85
2019-03-31T08:01:40.156Z,1017.90
2019-03-31T08:02:40.143Z,1017.84
2019-03-31T08:03:40.256Z,1017.86
2019-03-31T08:04:40.117Z,1017.92
2019-03-31T08:05:40.107Z,1017.92
2019-03-31T08:06:40.099Z,1017.88
2019-03-31T08:07:40.100Z,1017.85
2019-03-31T08:08:40.087Z,1017.86
2019-03-31T08:09:40.069Z,1017.91
2019-03-31T08:10:40.049Z,1017.95
2019-03-31T08:11:40.041Z,1017.92
2019-03-31T08:12:40.034Z,1017.98
2019-03-31T08:13:40.102Z,1017.95
2019-03-31T08:14:40.010Z,1017.98
2019-03-31T08:15:39.998Z,1017.99
2019-03-31T08:16:39.987Z,1018.02
2019-03-31T08:17:42.666Z,1018.08
2019-03-31T08:18:39.966Z,1018.05
2019-03-31T08:19:40.004Z,1018.09
2019-03-31T08:20:40.013Z,1018.11
2019-03-31T08:21:39.932Z,1018.10
2019-03-31T08:22:39.917Z,1018.04
2019-03-31T08:23:39.904Z,1018.03
2019-03-31T08:24:39.896Z,1018.10
2019-03-31T08:25:39.940Z,1018.07
2019-03-31T08:26:39.871Z,1018.11
2019-03-31T08:27:39.865Z,1018.17
2019-03-31T08:28:39.866Z,1018.07
2019-03-31T08:29:39.849Z,1018.18
2019-03-31T08:30:39.926Z,1018.11
2019-03-31T08:31:39.857Z,1018.15
2019-03-31T08:32:39.810Z,1018.22
2019-03-31T08:33:39.802Z,1018.25
2019-03-31T08:34:39.783Z,1018.20
2019-03-31T08:35:47.286Z,1018.22
2019-03-31T08:36:40.817Z,1018.21
2019-03-31T08:37:39.750Z,1018.19
2019-03-31T08:38:39.739Z,1018.16
2019-03-31T08:39:39.729Z,1018.20
2019-03-31T08:40:39.715Z,1018.19
2019-03-31T08:41:39.705Z,1018.23
2019-03-31T08:42:39.711Z,1018.23
2019-03-31T08:43:39.683Z,1018.25
2019-03-31T08:44:39.678Z,1018.26
2019-03-31T08:45:39.666Z,1018.33
2019-03-31T08:46:39.658Z,1018.32
2019-03-31T08:47:39.650Z,1018.29
2019-03-31T08:48:39.631Z,1018.30
2019-03-31T08:49:39.623Z,1018.28
2019-03-31T08:50:39.604Z,1018.34
2019-03-31T08:51:39.607Z,1018.32
2019-03-31T08:52:39.591Z,1018.37
2019-03-31T08:53:39.578Z,1018.41
2019-03-31T08:54:39.561Z,1018.34
2019-03-31T08:55:39.617Z,1018.44
2019-03-31T08:56:39.543Z,1018.39
2019-03-31T08:57:39.543Z,1018.41
2019-03-31T08:58:39.606Z,1018.45
2019-03-31T08:59:39.515Z,1018.43
2019-03-31T09:00:39.498Z,1018.46
2019-03-31T09:01:39.483Z,1018.42
2019-03-31T09:02:39.482Z,1018.42
2019-03-31T09:03:39.466Z,1018.44
2019-03-31T09:04:39.450Z,1018.42
2019-03-31T09:05:39.451Z,1018.51
2019-03-31T09:06:39.427Z,1018.46
2019-03-31T09:07:41.905Z,1018.52
2019-03-31T09:08:39.416Z,1018.52
2019-03-31T09:09:39.395Z,1018.52
2019-03-31T09:10:39.382Z,1018.51
2019-03-31T09:11:39.381Z,1018.48
2019-03-31T09:12:39.362Z,1018.52
2019-03-31T09:13:39.364Z,1018.55
2019-03-31T09:14:39.410Z,1018.53
2019-03-31T09:15:39.332Z,1018.52
2019-03-31T09:16:39.326Z,1018.51
2019-03-31T09:17:39.306Z,1018.50
2019-03-31T09:18:39.302Z,1018.52
2019-03-31T09:19:39.288Z,1018.50
2019-03-31T09:20:39.281Z,1018.52
2019-03-31T09:21:39.265Z,1018.52
2019-03-31T09:22:39.260Z,1018.55
2019-03-31T09:23:39.245Z,1018.54
2019-03-31T09:24:39.264Z,1018.58
2019-03-31T09:25:39.221Z,1018.61
2019-03-31T09:26:39.211Z,1018.59
2019-03-31T09:27:39.195Z,1018.62
2019-03-31T09:28:39.189Z,1018.67
2019-03-31T09:29:39.173Z,1018.69
2019-03-31T09:30:39.172Z,1018.69
2019-03-31T09:31:39.151Z,1018.74
2019-03-31T09:32:39.148Z,1018.73
2019-03-31T09:33:39.617Z,1018.81
2019-03-31T09:34:39.121Z,1018.81
2019-03-31T09:35:39.130Z,1018.85
2019-03-31T09:36:39.213Z,1018.90
2019-03-31T09:37:39.087Z,1018.90
2019-03-31T09:38:39.072Z,1018.88
2019-03-31T09:39:39.062Z,1018.91
2019-03-31T09:40:39.053Z,1018.88
2019-03-31T09:41:39.081Z,1018.87
2019-03-31T09:42:39.038Z,1018.89
2019-03-31T09:43:39.022Z,1018.87
2019-03-31T09:44:39.004Z,1018.90
2019-03-31T09:45:39.002Z,1018.90
2019-03-31T09:46:38.990Z,1018.89
2019-03-31T09:47:38.987Z,1018.90
2019-03-31T09:48:38.966Z,1018.91
2019-03-31T09:49:38.958Z,1018.93
2019-03-31T09:50:38.943Z,1018.91
2019-03-31T09:51:38.933Z,1018.97
2019-03-31T09:52:38.929Z,1018.99
2019-03-31T09:53:38.924Z,1018.95
2019-03-31T09:54:38.899Z,1018.91
2019-03-31T09:55:38.884Z,1018.92
2019-03-31T09:56:38.873Z,1018.98
2019-03-31T09:57:38.869Z,1018.95
2019-03-31T09:58:38.848Z,1018.94
2019-03-31T09:59:38.843Z,1019.02
2019-03-31T10:00:38.826Z,1018.99
2019-03-31T10:01:38.821Z,1019.01
2019-03-31T10:02:38.815Z,1019.05
2019-03-31T10:03:38.808Z,1018.96
2019-03-31T10:04:38.791Z,1018.90
2019-03-31T10:05:38.772Z,1018.95
2019-03-31T10:06:38.764Z,1018.90
2019-03-31T10:07:38.763Z,1018.89
2019-03-31T10:08:38.769Z,1018.92
2019-03-31T10:09:38.739Z,1018.89
2019-03-31T10:10:38.719Z,1018.89
2019-03-31T10:11:38.705Z,1018.87
2019-03-31T10:12:38.692Z,1018.87
2019-03-31T10:13:38.686Z,1018.90
2019-03-31T10:14:38.682Z,1018.90
2019-03-31T10:15:38.660Z,1018.89
2019-03-31T10:16:38.649Z,1018.86
2019-03-31T10:17:38.643Z,1018.88
2019-03-31T10:18:38.626Z,1018.93
2019-03-31T10:19:38.616Z,1018.96
2019-03-31T10:20:38.640Z,1018.93
2019-03-31T10:21:38.604Z,1018.97
2019-03-31T10:22:38.590Z,1018.97
2019-03-31T10:23:38.581Z,1018.97
2019-03-31T10:24:38.565Z,1018.95
2019-03-31T10:25:38.555Z,1018.94
2019-03-31T10:26:38.550Z,1018.96
2019-03-31T10:27:38.533Z,1018.95
2019-03-31T10:28:38.650Z,1018.93
2019-03-31T10:29:38.523Z,1018.93
2019-03-31T10:30:38.501Z,1018.93
2019-03-31T10:31:38.487Z,1018.92
2019-03-31T10:32:38.477Z,1018.95
2019-03-31T10:33:38.468Z,1018.92
2019-03-31T10:34:38.463Z,1018.92
2019-03-31T10:35:38.442Z,1018.88
2019-03-31T10:36:44.446Z,1018.90
2019-03-31T10:37:39.423Z,1018.88
2019-03-31T10:38:38.408Z,1018.96
2019-03-31T10:39:38.408Z,1018.96
2019-03-31T10:40:38.406Z,1018.96
2019-03-31T10:41:38.376Z,1018.94
2019-03-31T10:42:38.361Z,1018.96
2019-03-31T10:43:38.350Z,1018.97
2019-03-31T10:44:38.349Z,1018.97
2019-03-31T10:45:38.333Z,1018.98
2019-03-31T10:46:38.321Z,1018.96
2019-03-31T10:47:38.306Z,1018.97
2019-03-31T10:48:38.301Z,1019.01
2019-03-31T10:49:38.298Z,1019.04
2019-03-31T10:50:38.277Z,1018.96
2019-03-31T10:51:38.261Z,1018.98
2019-03-31T10:52:38.251Z,1018.99
2019-03-31T10:53:38.250Z,1018.98
2019-03-31T10:54:38.236Z,1019.01
2019-03-31T10:55:38.263Z,1018.99
2019-03-31T10:56:38.208Z,1018.96
2019-03-31T10:57:38.199Z,1018.95
2019-03-31T10:58:38.189Z,1018.96
2019-03-31T10:59:38.176Z,1018.98
2019-03-31T11:00:38.166Z,1018.94
2019-03-31T11:01:38.177Z,1018.97
2019-03-31T11:02:38.147Z,1018.93
2019-03-31T11:03:38.129Z,1018.94
2019-03-31T11:04:38.120Z,1018.88
2019-03-31T11:05:38.105Z,1018.90
2019-03-31T11:06:38.093Z,1018.90
2019-03-31T11:07:38.098Z,1018.93
2019-03-31T11:08:38.076Z,1018.94
2019-03-31T11:09:38.067Z,1018.92
2019-03-31T11:10:38.054Z,1018.91
2019-03-31T11:11:38.054Z,1018.93
2019-03-31T11:12:38.032Z,1018.90
2019-03-31T11:13:38.021Z,1018.96
2019-03-31T11:14:38.017Z,1018.86
2019-03-31T11:15:37.998Z,1018.89
2019-03-31T11:16:37.986Z,1018.92
2019-03-31T11:17:37.984Z,1018.90
2019-03-31T11:18:37.964Z,1018.92
2019-03-31T11:19:37.966Z,1018.92
2019-03-31T11:20:37.942Z,1018.96
2019-03-31T11:21:40.432Z,1018.93
2019-03-31T11:22:37.922Z,1018.97
2019-03-31T11:23:37.926Z,1019.00
2019-03-31T11:24:37.896Z,1019.03
2019-03-31T11:25:37.882Z,1018.97
2019-03-31T11:26:37.869Z,1018.97
2019-03-31T11:27:37.881Z,1018.98
2019-03-31T11:28:37.855Z,1018.89
2019-03-31T11:29:37.843Z,1018.97
2019-03-31T11:30:37.826Z,1018.95
2019-03-31T11:31:37.818Z,1018.94
2019-03-31T11:32:37.819Z,1019.04
2019-03-31T11:33:37.798Z,1018.99
2019-03-31T11:34:37.782Z,1018.95
2019-03-31T11:35:37.775Z,1018.92
2019-03-31T11:36:37.776Z,1018.91
2019-03-31T11:37:37.747Z,1018.85
2019-03-31T11:38:37.750Z,1018.87
2019-03-31T11:39:37.729Z,1018.91
2019-03-31T11:40:37.718Z,1018.93
2019-03-31T11:41:37.702Z,1018.97
2019-03-31T11:42:37.705Z,1019.02
2019-03-31T11:43:37.719Z,1019.01
2019-03-31T11:44:37.674Z,1018.96
2019-03-31T11:45:37.657Z,1019.04
2019-03-31T11:46:37.654Z,1018.92
2019-03-31T11:47:37.636Z,1019.04
2019-03-31T11:48:37.625Z,1019.01
2019-03-31T11:49:37.629Z,1019.00
2019-03-31T11:50:37.607Z,1018.92
2019-03-31T11:51:37.594Z,1018.96
2019-03-31T11:52:37.586Z,1018.97
2019-03-31T11:53:37.610Z,1018.96
2019-03-31T11:54:37.564Z,1018.94
2019-03-31T11:55:37.554Z,1018.97
2019-03-31T11:56:37.541Z,1019.01
2019-03-31T11:57:37.533Z,1019.07
2019-03-31T11:58:37.520Z,1019.03
2019-03-31T11:59:37.520Z,1019.03
2019-03-31T12:00:37.511Z,1019.07
2019-03-31T12:01:37.487Z,1019.03
2019-03-31T12:02:37.481Z,1019.06
2019-03-31T12:03:37.465Z,1019.03
2019-03-31T12:04:37.465Z,1019.03
2019-03-31T12:05:37.443Z,1019.02